createdAt,value
2018-05-29T00:00:33.775Z,17.33
2018-05-29T00:03:01.109Z,17.13
2018-05-29T00:05:28.497Z,18.80
2018-05-29T00:07:55.458Z,17.30
2018-05-29T00:10:22.082Z,16.97
2018-05-29T00:12:48.776Z,16.73
2018-05-29T00:15:15.401Z,17.20
2018-05-29T00:17:42.004Z,18.10
2018-05-29T00:20:08.564Z,18.47
2018-05-29T00:22:35.099Z,16.93
2018-05-29T00:25:01.768Z,17.33
2018-05-29T00:27:28.366Z,17.00
2018-05-29T00:29:54.967Z,17.17
2018-05-29T00:32:21.540Z,18.83
2018-05-29T00:34:48.270Z,17.07
2018-05-29T00:37:14.976Z,18.87
2018-05-29T00:39:42.289Z,18.07
2018-05-29T00:42:08.907Z,17.33
2018-05-29T00:44:35.468Z,17.27
2018-05-29T00:47:02.062Z,17.90
2018-05-29T00:49:28.645Z,17.53
2018-05-29T00:51:55.957Z,18.33
2018-05-29T00:54:22.557Z,18.50
2018-05-29T00:56:49.133Z,19.23
2018-05-29T00:59:15.823Z,19.13
2018-05-29T01:01:42.386Z,18.70
2018-05-29T01:04:09.683Z,19.37
2018-05-29T01:06:36.239Z,20.40
2018-05-29T01:09:02.891Z,20.17
2018-05-29T01:11:29.668Z,18.13
2018-05-29T01:13:56.284Z,19.50
2018-05-29T01:16:23.283Z,19.93
2018-05-29T01:18:50.648Z,18.80
2018-05-29T01:21:17.234Z,19.87
2018-05-29T01:23:44.294Z,20.40
2018-05-29T01:26:10.975Z,19.73
2018-05-29T01:28:37.507Z,20.37
2018-05-29T01:31:04.881Z,21.80
2018-05-29T01:33:31.395Z,21.20
2018-05-29T01:35:57.955Z,18.93
2018-05-29T01:38:25.320Z,19.83
2018-05-29T01:40:51.913Z,20.17
2018-05-29T01:43:18.454Z,20.03
2018-05-29T01:45:45.403Z,20.90
2018-05-29T01:48:12.753Z,20.50
2018-05-29T01:50:39.290Z,20.17
2018-05-29T01:53:05.862Z,20.27
2018-05-29T01:55:32.839Z,20.50
2018-05-29T01:57:59.385Z,20.57
2018-05-29T02:00:25.953Z,21.27
2018-05-29T02:02:53.302Z,20.07
2018-05-29T02:05:19.890Z,20.77
2018-05-29T02:07:46.482Z,20.13
2018-05-29T02:10:13.145Z,20.30
2018-05-29T02:12:39.804Z,20.67
2018-05-29T02:15:06.392Z,22.57
2018-05-29T02:17:33.056Z,20.00
2018-05-29T02:19:59.622Z,21.23
2018-05-29T02:22:26.709Z,20.97
2018-05-29T02:24:53.286Z,22.20
2018-05-29T02:27:19.930Z,21.17
2018-05-29T02:29:46.515Z,20.33
2018-05-29T02:32:13.129Z,21.20
2018-05-29T02:34:39.679Z,20.53
2018-05-29T02:37:06.217Z,21.43
2018-05-29T02:39:32.751Z,19.80
2018-05-29T02:41:59.358Z,21.23
2018-05-29T02:44:25.949Z,21.13
2018-05-29T02:46:52.676Z,22.23
2018-05-29T02:49:19.230Z,21.03
2018-05-29T02:51:46.568Z,20.87
2018-05-29T02:54:13.117Z,20.33
2018-05-29T02:56:40.466Z,22.17
2018-05-29T02:59:07.091Z,20.03
2018-05-29T03:01:33.760Z,20.47
2018-05-29T03:04:00.399Z,21.70
2018-05-29T03:06:27.767Z,19.80
2018-05-29T03:08:54.345Z,22.33
2018-05-29T03:11:20.955Z,22.87
2018-05-29T03:13:48.071Z,20.23
2018-05-29T03:16:14.657Z,22.83
2018-05-29T03:18:41.262Z,22.77
2018-05-29T03:21:07.855Z,21.57
2018-05-29T03:23:34.452Z,23.00
2018-05-29T03:26:01.121Z,20.70
2018-05-29T03:28:27.856Z,22.10
2018-05-29T03:30:54.405Z,21.20
2018-05-29T03:33:20.953Z,22.43
2018-05-29T03:35:48.261Z,23.03
2018-05-29T03:38:14.839Z,22.63
2018-05-29T03:40:41.439Z,22.37
2018-05-29T03:43:08.027Z,22.87
2018-05-29T03:45:35.321Z,22.37
2018-05-29T03:48:01.937Z,23.07
2018-05-29T03:50:28.493Z,21.40
2018-05-29T03:52:55.081Z,23.20
2018-05-29T03:55:22.428Z,23.30
2018-05-29T03:57:50.126Z,23.43
2018-05-29T04:00:16.677Z,22.00
2018-05-29T04:02:43.297Z,22.77
2018-05-29T04:05:09.876Z,21.90
2018-05-29T04:07:36.550Z,21.90
2018-05-29T04:10:03.171Z,23.83
2018-05-29T04:12:30.463Z,23.57
2018-05-29T04:14:57.769Z,21.33
2018-05-29T04:17:24.344Z,22.67
2018-05-29T04:19:51.309Z,22.73
2018-05-29T04:22:17.922Z,21.50
2018-05-29T04:24:45.187Z,21.90
2018-05-29T04:27:11.927Z,20.97
2018-05-29T04:29:38.457Z,20.10
2018-05-29T04:32:04.991Z,21.13
2018-05-29T04:34:31.686Z,19.17
2018-05-29T04:36:58.241Z,19.33
2018-05-29T04:39:24.831Z,19.23
2018-05-29T04:41:51.384Z,20.30
2018-05-29T04:44:18.035Z,19.33
2018-05-29T04:46:45.008Z,18.93
2018-05-29T04:49:12.441Z,18.70
2018-05-29T04:51:38.994Z,18.77
2018-05-29T04:54:07.037Z,18.63
2018-05-29T04:56:33.623Z,17.37
2018-05-29T04:59:00.213Z,17.20
2018-05-29T05:01:26.810Z,17.90
2018-05-29T05:03:53.355Z,17.37
2018-05-29T05:06:20.096Z,17.53
2018-05-29T05:08:46.666Z,17.23
2018-05-29T05:11:13.202Z,17.30
2018-05-29T05:13:40.004Z,16.93
2018-05-29T05:16:06.678Z,17.17
2018-05-29T05:18:33.228Z,16.77
2018-05-29T05:20:59.784Z,16.33
2018-05-29T05:23:26.315Z,15.50
2018-05-29T05:25:52.934Z,15.90
2018-05-29T05:28:19.482Z,15.80
2018-05-29T05:30:46.824Z,15.97
2018-05-29T05:33:13.483Z,15.40
2018-05-29T05:35:40.761Z,15.40
2018-05-29T05:38:07.501Z,14.50
2018-05-29T05:40:34.088Z,15.13
2018-05-29T05:43:00.624Z,15.43
2018-05-29T05:45:27.218Z,14.70
2018-05-29T05:47:53.751Z,15.53
2018-05-29T05:50:20.686Z,14.83
2018-05-29T05:52:47.268Z,15.17
2018-05-29T05:55:13.809Z,13.40
2018-05-29T05:57:40.394Z,13.87
2018-05-29T06:00:06.999Z,13.13
2018-05-29T06:02:34.812Z,14.93
2018-05-29T06:05:01.363Z,13.57
2018-05-29T06:07:29.552Z,13.40
2018-05-29T06:09:56.729Z,12.20
2018-05-29T06:12:24.026Z,13.27
2018-05-29T06:14:50.569Z,13.20
2018-05-29T06:17:17.132Z,13.70
2018-05-29T06:19:45.163Z,13.33
2018-05-29T06:22:11.775Z,13.13
2018-05-29T06:24:39.070Z,13.70
2018-05-29T06:27:05.682Z,13.20
2018-05-29T06:29:32.249Z,13.30
2018-05-29T06:31:59.248Z,13.00
2018-05-29T06:34:25.783Z,12.27
2018-05-29T06:36:52.379Z,13.07
2018-05-29T06:39:18.966Z,12.60
2018-05-29T06:41:45.578Z,12.90
2018-05-29T06:44:12.916Z,13.40
2018-05-29T06:46:40.241Z,11.83
2018-05-29T06:49:06.852Z,12.63
2018-05-29T06:51:33.426Z,12.57
2018-05-29T06:54:00.207Z,13.10
2018-05-29T06:56:27.501Z,13.10
2018-05-29T06:58:54.026Z,12.67
2018-05-29T07:01:20.609Z,11.20
2018-05-29T07:03:47.143Z,11.83
2018-05-29T07:06:13.699Z,12.83
2018-05-29T07:08:41.165Z,11.70
2018-05-29T07:11:08.213Z,12.13
2018-05-29T07:13:34.764Z,12.67
2018-05-29T07:16:01.445Z,12.07
2018-05-29T07:18:28.006Z,12.33
2018-05-29T07:20:55.315Z,12.37
2018-05-29T07:23:21.902Z,12.87
2018-05-29T07:25:49.163Z,12.90
2018-05-29T07:28:15.747Z,12.93
2018-05-29T07:30:42.276Z,12.63
2018-05-29T07:33:09.094Z,13.00
2018-05-29T07:35:35.665Z,12.50
2018-05-29T07:38:02.260Z,12.43
2018-05-29T07:40:28.839Z,13.10
2018-05-29T07:42:56.903Z,11.97
2018-05-29T07:45:23.475Z,12.50
2018-05-29T07:47:50.780Z,12.07
2018-05-29T07:50:17.368Z,10.93
2018-05-29T07:52:43.907Z,12.33
2018-05-29T07:55:11.225Z,11.17
2018-05-29T07:57:38.385Z,13.20
2018-05-29T08:00:04.923Z,13.13
2018-05-29T08:02:31.487Z,12.50
2018-05-29T08:04:58.834Z,12.03
2018-05-29T08:07:26.124Z,11.90
2018-05-29T08:09:52.717Z,12.40
2018-05-29T08:12:19.332Z,12.17
2018-05-29T08:14:46.100Z,11.90
2018-05-29T08:17:13.557Z,12.13
2018-05-29T08:19:41.314Z,11.83
2018-05-29T08:22:08.627Z,11.23
2018-05-29T08:24:35.328Z,11.37
2018-05-29T08:27:01.907Z,11.40
2018-05-29T08:29:28.473Z,10.53
2018-05-29T08:31:55.782Z,10.80
2018-05-29T08:34:22.379Z,11.47
2018-05-29T08:36:50.190Z,11.20
2018-05-29T08:39:16.903Z,10.57
2018-05-29T08:41:43.427Z,10.50
2018-05-29T08:44:10.725Z,10.53
2018-05-29T08:46:37.279Z,10.50
2018-05-29T08:49:03.848Z,10.90
2018-05-29T08:51:30.470Z,10.50
2018-05-29T08:53:57.799Z,9.37
2018-05-29T08:56:24.398Z,9.87
2018-05-29T08:58:51.005Z,9.90
2018-05-29T09:01:18.041Z,9.13
2018-05-29T09:03:45.338Z,9.50
2018-05-29T09:06:11.912Z,9.60
2018-05-29T09:08:38.638Z,9.50
2018-05-29T09:11:06.469Z,8.30
2018-05-29T09:13:33.029Z,9.53
2018-05-29T09:15:59.589Z,9.10
2018-05-29T09:18:26.173Z,9.17
2018-05-29T09:20:52.750Z,9.63
2018-05-29T09:23:19.757Z,7.90
2018-05-29T09:25:46.348Z,8.20
2018-05-29T09:28:13.638Z,8.20
2018-05-29T09:30:40.240Z,7.67
2018-05-29T09:33:07.205Z,7.53
2018-05-29T09:35:33.817Z,8.13
2018-05-29T09:38:00.331Z,7.17
2018-05-29T09:40:27.015Z,7.47
2018-05-29T09:42:54.315Z,7.50
2018-05-29T09:45:21.228Z,6.93
2018-05-29T09:47:47.710Z,6.90
2018-05-29T09:50:14.268Z,7.20
2018-05-29T09:52:40.876Z,7.30
2018-05-29T09:55:07.588Z,7.30
2018-05-29T09:57:34.403Z,7.43
2018-05-29T10:00:01.842Z,7.23
2018-05-29T10:02:29.167Z,7.37
2018-05-29T10:04:55.799Z,7.07
2018-05-29T10:07:22.376Z,7.20
2018-05-29T10:09:48.927Z,7.67
2018-05-29T10:12:16.300Z,7.20
2018-05-29T10:14:42.859Z,7.70
2018-05-29T10:17:09.425Z,7.80
2018-05-29T10:19:36.772Z,8.37
2018-05-29T10:22:03.337Z,8.20
2018-05-29T10:24:31.031Z,7.13
2018-05-29T10:26:57.590Z,8.07
2018-05-29T10:29:24.154Z,7.57
2018-05-29T10:31:50.701Z,7.80
2018-05-29T10:34:17.286Z,8.37
2018-05-29T10:36:43.857Z,8.00
2018-05-29T10:39:10.499Z,8.10
2018-05-29T10:41:37.807Z,8.40
2018-05-29T10:44:04.391Z,8.03
2018-05-29T10:46:31.368Z,8.20
2018-05-29T10:48:57.930Z,8.27
2018-05-29T10:51:24.490Z,8.43
2018-05-29T10:53:51.056Z,7.87
2018-05-29T10:56:18.412Z,7.50
2018-05-29T10:58:45.879Z,7.17
2018-05-29T11:01:12.506Z,7.30
2018-05-29T11:03:39.861Z,7.40
2018-05-29T11:06:06.514Z,7.80
2018-05-29T11:08:33.102Z,7.30
2018-05-29T11:10:59.739Z,7.07
2018-05-29T11:13:26.307Z,6.87
2018-05-29T11:15:53.725Z,7.17
2018-05-29T11:18:21.066Z,7.13
2018-05-29T11:20:48.529Z,6.43
2018-05-29T11:23:15.212Z,5.70
2018-05-29T11:25:41.849Z,5.90
2018-05-29T11:28:08.473Z,5.63
2018-05-29T11:30:35.126Z,5.20
2018-05-29T11:33:02.467Z,5.57
2018-05-29T11:35:29.742Z,5.60
2018-05-29T11:37:56.313Z,5.37
2018-05-29T11:40:22.878Z,5.53
2018-05-29T11:42:49.478Z,4.47
2018-05-29T11:45:16.074Z,5.20
2018-05-29T11:47:43.350Z,5.80
2018-05-29T11:50:09.923Z,5.30
2018-05-29T11:52:36.421Z,5.77
2018-05-29T11:55:03.085Z,5.57
2018-05-29T11:57:29.619Z,5.53
2018-05-29T11:59:56.201Z,5.60
2018-05-29T12:02:23.512Z,5.80
2018-05-29T12:04:50.784Z,5.83
2018-05-29T12:07:17.350Z,5.50
2018-05-29T12:09:43.939Z,5.57
2018-05-29T12:12:23.462Z,5.70
2018-05-29T12:14:50.027Z,6.20
2018-05-29T12:17:17.307Z,6.00
2018-05-29T12:19:43.809Z,5.73
2018-05-29T12:22:10.448Z,5.87
2018-05-29T12:24:37.009Z,6.00
2018-05-29T12:27:03.577Z,6.13
2018-05-29T12:29:30.155Z,6.40
2018-05-29T12:31:56.727Z,5.37
2018-05-29T12:34:24.104Z,6.03
2018-05-29T12:36:51.397Z,5.63
2018-05-29T12:39:17.957Z,5.83
2018-05-29T12:41:45.278Z,5.60
2018-05-29T12:44:11.868Z,6.67
2018-05-29T12:46:38.447Z,6.03
2018-05-29T12:49:05.881Z,6.43
2018-05-29T12:51:32.475Z,6.00
2018-05-29T12:53:58.974Z,5.67
2018-05-29T12:56:26.207Z,6.63
2018-05-29T12:58:52.793Z,5.73
2018-05-29T13:01:20.193Z,6.20
2018-05-29T13:03:46.675Z,6.00
2018-05-29T13:06:13.161Z,5.63
2018-05-29T13:08:39.863Z,5.27
2018-05-29T13:11:06.416Z,5.60
2018-05-29T13:13:32.944Z,5.77
2018-05-29T13:15:59.927Z,5.63
2018-05-29T13:18:26.429Z,5.83
2018-05-29T13:20:52.950Z,5.63
2018-05-29T13:23:19.834Z,5.47
2018-05-29T13:25:46.406Z,5.03
2018-05-29T13:28:12.917Z,5.43
2018-05-29T13:30:40.179Z,4.87
2018-05-29T13:33:07.445Z,5.07
2018-05-29T13:35:33.997Z,5.43
2018-05-29T13:38:00.479Z,5.27
2018-05-29T13:40:26.983Z,6.00
2018-05-29T13:42:53.523Z,5.33
2018-05-29T13:45:20.031Z,5.20
2018-05-29T13:47:46.732Z,6.00
2018-05-29T13:50:13.211Z,5.57
2018-05-29T13:52:39.717Z,5.30
2018-05-29T13:55:07.057Z,5.50
2018-05-29T13:57:34.287Z,5.30
2018-05-29T14:00:00.817Z,5.10
2018-05-29T14:02:27.339Z,5.47
2018-05-29T14:04:53.858Z,5.37
2018-05-29T14:07:20.841Z,5.47
2018-05-29T14:09:47.389Z,5.50
2018-05-29T14:12:13.899Z,5.33
2018-05-29T14:14:40.463Z,5.47
2018-05-29T14:17:07.094Z,5.70
2018-05-29T14:19:34.134Z,5.73
2018-05-29T14:22:00.629Z,5.80
2018-05-29T14:24:27.181Z,6.10
2018-05-29T14:26:53.714Z,5.43
2018-05-29T14:29:20.222Z,5.50
2018-05-29T14:31:46.753Z,5.70
2018-05-29T14:34:13.230Z,6.40
2018-05-29T14:36:39.834Z,6.07
2018-05-29T14:39:06.347Z,5.80
2018-05-29T14:41:33.584Z,6.40
2018-05-29T14:44:00.156Z,6.70
2018-05-29T14:46:27.117Z,5.80
2018-05-29T14:48:53.613Z,6.07
2018-05-29T14:51:20.829Z,5.47
2018-05-29T14:53:47.337Z,5.70
2018-05-29T14:56:13.834Z,5.70
2018-05-29T14:58:41.164Z,5.33
2018-05-29T15:01:07.654Z,5.23
2018-05-29T15:03:34.199Z,5.77
2018-05-29T15:06:00.695Z,5.67
2018-05-29T15:08:27.200Z,5.57
2018-05-29T15:10:53.705Z,6.43
2018-05-29T15:13:20.269Z,5.90
2018-05-29T15:15:46.817Z,6.00
2018-05-29T15:18:14.036Z,5.60
2018-05-29T15:20:41.099Z,5.40
2018-05-29T15:23:07.602Z,5.57
2018-05-29T15:25:34.101Z,6.73
2018-05-29T15:28:00.643Z,6.00
2018-05-29T15:30:27.163Z,5.93
2018-05-29T15:32:54.898Z,6.40
2018-05-29T15:35:21.408Z,5.83
2018-05-29T15:37:47.910Z,6.20
2018-05-29T15:40:14.573Z,6.40
2018-05-29T15:42:41.120Z,6.10
2018-05-29T15:45:07.638Z,6.03
2018-05-29T15:47:34.150Z,7.77
2018-05-29T15:50:00.677Z,6.43
2018-05-29T15:52:27.192Z,6.50
2018-05-29T15:54:54.492Z,6.60
2018-05-29T15:57:20.973Z,6.73
2018-05-29T15:59:47.485Z,6.90
2018-05-29T16:02:13.973Z,6.77
2018-05-29T16:04:41.263Z,6.23
2018-05-29T16:07:07.748Z,6.67
2018-05-29T16:09:35.052Z,6.47
2018-05-29T16:12:01.623Z,6.47
2018-05-29T16:14:28.150Z,6.27
2018-05-29T16:16:54.756Z,6.50
2018-05-29T16:19:21.256Z,6.70
2018-05-29T16:21:47.788Z,7.03
2018-05-29T16:24:15.040Z,7.40
2018-05-29T16:26:41.548Z,7.40
2018-05-29T16:29:08.848Z,7.73
2018-05-29T16:31:35.386Z,7.77
2018-05-29T16:34:02.017Z,7.53
2018-05-29T16:36:28.577Z,7.50
2018-05-29T16:38:55.106Z,7.93
2018-05-29T16:41:21.627Z,7.97
2018-05-29T16:43:48.145Z,8.03
2018-05-29T16:46:14.642Z,7.67
2018-05-29T16:48:41.166Z,7.70
2018-05-29T16:51:07.682Z,8.63
2018-05-29T16:53:34.183Z,8.80
2018-05-29T16:56:00.709Z,8.63
2018-05-29T16:58:27.968Z,8.67
2018-05-29T17:00:55.230Z,8.10
2018-05-29T17:03:21.711Z,8.07
2018-05-29T17:05:48.242Z,8.57
2018-05-29T17:08:14.746Z,7.70
2018-05-29T17:10:41.620Z,7.57
2018-05-29T17:13:08.194Z,8.03
2018-05-29T17:15:35.442Z,8.43
2018-05-29T17:18:02.738Z,8.07
2018-05-29T17:20:29.225Z,7.83
2018-05-29T17:22:56.490Z,7.23
2018-05-29T17:25:22.969Z,7.20
2018-05-29T17:27:49.483Z,7.47
2018-05-29T17:30:16.366Z,7.50
2018-05-29T17:32:42.854Z,7.90
2018-05-29T17:35:09.363Z,8.20
2018-05-29T17:37:36.612Z,7.50
2018-05-29T17:40:03.855Z,7.60
2018-05-29T17:42:30.339Z,8.17
2018-05-29T17:44:56.905Z,8.27
2018-05-29T17:47:23.415Z,8.23
2018-05-29T17:49:49.902Z,8.03
2018-05-29T17:52:17.163Z,7.50
2018-05-29T17:54:43.805Z,7.77
2018-05-29T17:57:11.037Z,7.40
2018-05-29T17:59:37.554Z,7.60
2018-05-29T18:02:05.601Z,7.77
2018-05-29T18:04:32.578Z,7.60
2018-05-29T18:06:59.068Z,7.47
2018-05-29T18:09:25.640Z,7.40
2018-05-29T18:11:52.811Z,8.30
2018-05-29T18:14:19.328Z,7.83
2018-05-29T18:16:47.333Z,8.50
2018-05-29T18:19:13.844Z,8.83
2018-05-29T18:21:40.784Z,9.40
2018-05-29T18:24:07.300Z,9.77
2018-05-29T18:26:33.805Z,9.47
2018-05-29T18:29:00.482Z,9.97
2018-05-29T18:31:26.984Z,10.00
2018-05-29T18:33:53.516Z,9.20
2018-05-29T18:36:20.115Z,8.93
2018-05-29T18:38:46.624Z,8.50
2018-05-29T18:41:15.796Z,8.17
2018-05-29T18:43:42.303Z,9.00
2018-05-29T18:46:08.839Z,8.90
2018-05-29T18:48:35.410Z,10.07
2018-05-29T18:51:01.930Z,10.50
2018-05-29T18:53:28.412Z,10.83
2018-05-29T18:55:55.693Z,10.50
2018-05-29T18:58:22.209Z,9.67
2018-05-29T19:00:49.448Z,10.43
2018-05-29T19:03:16.757Z,10.23
2018-05-29T19:05:43.245Z,10.20
2018-05-29T19:08:10.485Z,9.63
2018-05-29T19:10:37.801Z,9.83
2018-05-29T19:13:04.424Z,10.17
2018-05-29T19:15:30.966Z,9.73
2018-05-29T19:17:57.430Z,9.83
2018-05-29T19:20:23.985Z,9.37
2018-05-29T19:22:50.538Z,9.07
2018-05-29T19:25:16.999Z,8.43
2018-05-29T19:27:43.528Z,8.00
2018-05-29T19:30:10.049Z,7.50
2018-05-29T19:32:36.608Z,7.80
2018-05-29T19:35:03.144Z,7.30
2018-05-29T19:37:29.759Z,7.67
2018-05-29T19:39:56.263Z,7.80
2018-05-29T19:42:23.502Z,8.87
2018-05-29T19:44:50.869Z,7.93
2018-05-29T19:47:17.361Z,8.00
2018-05-29T19:49:44.002Z,8.30
2018-05-29T19:52:10.525Z,8.47
2018-05-29T19:54:37.208Z,9.07
2018-05-29T19:57:03.701Z,8.17
2018-05-29T19:59:30.251Z,8.57
2018-05-29T20:01:56.744Z,8.10
2018-05-29T20:04:23.282Z,9.83
2018-05-29T20:06:49.830Z,9.67
2018-05-29T20:09:17.206Z,8.30
2018-05-29T20:11:43.769Z,8.77
2018-05-29T20:14:10.299Z,7.80
2018-05-29T20:16:38.311Z,7.97
2018-05-29T20:19:05.208Z,7.57
2018-05-29T20:21:31.842Z,8.70
2018-05-29T20:23:58.326Z,7.93
2018-05-29T20:26:24.961Z,8.13
2018-05-29T20:28:51.461Z,8.57
2018-05-29T20:31:18.055Z,7.90
2018-05-29T20:33:44.594Z,8.10
2018-05-29T20:36:12.380Z,8.30
2018-05-29T20:38:38.863Z,7.93
2018-05-29T20:41:06.190Z,8.07
2018-05-29T20:43:33.235Z,7.90
2018-05-29T20:45:59.783Z,7.63
2018-05-29T20:48:27.022Z,7.30
2018-05-29T20:50:53.627Z,7.57
2018-05-29T20:53:20.134Z,7.50
2018-05-29T20:55:46.652Z,7.80
2018-05-29T20:58:13.871Z,8.07
2018-05-29T21:00:40.817Z,8.07
2018-05-29T21:03:07.320Z,7.77
2018-05-29T21:05:33.810Z,8.03
2018-05-29T21:08:01.434Z,7.33
2018-05-29T21:10:27.931Z,8.13
2018-05-29T21:12:54.424Z,7.93
2018-05-29T21:15:20.965Z,7.13
2018-05-29T21:17:48.199Z,7.97
2018-05-29T21:20:14.738Z,8.33
2018-05-29T21:22:41.452Z,8.40
2018-05-29T21:25:07.959Z,8.97
2018-05-29T21:27:34.853Z,8.07
2018-05-29T21:30:01.354Z,9.97
2018-05-29T21:32:27.840Z,10.87
2018-05-29T21:34:55.252Z,12.47
2018-05-29T21:37:21.769Z,13.27
2018-05-29T21:39:48.289Z,10.60
2018-05-29T21:42:14.804Z,11.00
2018-05-29T21:44:42.037Z,12.03
2018-05-29T21:47:08.647Z,11.80
2018-05-29T21:49:35.124Z,11.33
2018-05-29T21:52:02.869Z,11.90
2018-05-29T21:54:29.481Z,11.63
2018-05-29T21:56:55.974Z,10.90
2018-05-29T21:59:22.531Z,11.30
2018-05-29T22:01:49.829Z,11.37
2018-05-29T22:04:16.306Z,12.80
2018-05-29T22:06:42.820Z,11.57
2018-05-29T22:09:10.196Z,11.27
2018-05-29T22:11:36.761Z,11.40
2018-05-29T22:14:03.630Z,11.23
2018-05-29T22:16:30.240Z,11.77
2018-05-29T22:18:56.724Z,10.20
2018-05-29T22:21:23.979Z,11.13
2018-05-29T22:23:51.277Z,9.13
2018-05-29T22:26:18.146Z,10.27
2018-05-29T22:28:44.662Z,10.63
2018-05-29T22:31:11.269Z,10.63
2018-05-29T22:33:37.793Z,10.57
2018-05-29T22:36:04.468Z,10.00
2018-05-29T22:38:31.209Z,11.10
2018-05-29T22:40:57.845Z,10.17
2018-05-29T22:43:24.358Z,10.40
2018-05-29T22:45:50.846Z,10.53
2018-05-29T22:48:17.377Z,11.17
2018-05-29T22:50:43.920Z,10.77
2018-05-29T22:53:11.187Z,12.07
2018-05-29T22:55:37.751Z,12.13
2018-05-29T22:58:04.288Z,12.47
2018-05-29T23:00:30.812Z,12.30
2018-05-29T23:02:58.301Z,12.53
2018-05-29T23:05:24.918Z,11.10
2018-05-29T23:07:51.470Z,11.83
2018-05-29T23:10:18.067Z,12.53
2018-05-29T23:12:44.754Z,10.77
2018-05-29T23:15:11.704Z,11.10
2018-05-29T23:17:38.305Z,11.70
2018-05-29T23:20:04.861Z,12.87
2018-05-29T23:22:31.451Z,11.33
2018-05-29T23:24:58.010Z,12.00
2018-05-29T23:27:24.885Z,12.13
2018-05-29T23:29:52.171Z,11.27
2018-05-29T23:32:18.695Z,12.50
2018-05-29T23:34:45.655Z,11.03
2018-05-29T23:37:12.183Z,12.33
2018-05-29T23:39:38.723Z,12.60
2018-05-29T23:42:05.422Z,11.90
2018-05-29T23:44:32.882Z,13.90
2018-05-29T23:47:00.176Z,13.20
2018-05-29T23:49:26.746Z,14.20
2018-05-29T23:51:53.338Z,12.93
2018-05-29T23:54:19.885Z,12.47
2018-05-29T23:56:46.453Z,12.87
2018-05-29T23:59:12.992Z,13.20
